My Meet Scores
Tea Mladjenovic, The Gymnastics Shop - MyMeetScores.com
Top100 | Top Teams | Upcoming Meets | Completed Meets | Latest | Add Scores | Help| Support | Bookmark and Share

Tea Mladjenovic, The Gymnastics Shop
Personal Bests
LevelVault BarsBeamFloorAA
49.4259.300 9.0509.32536.700
59.1258.100 8.8009.17535.200
79.2758.800 8.7009.12535.750
89.0508.250 8.6009.07534.550
99.2008.000 8.8008.90034.100
Meet Scores
Date Meet Team Session Level Division Vault Bars Beam Floor AA
2019-03-15 Illinois State Championship Level 6,9,10 The Gymnastics Shop 5 9 Sr B 9.200 9 7.250 18 7.800 19 8.650 17 32.900 18
2019-02-23 Kinetic Classic 2019 The Gymnastics Shop 1 9 Older 8.725 7T 7.250 12 0.000 12 0.000 12 15.975 12
2019-01-25 Great Destinations - California 2019 The Gymnastics Shop 05B 9 JR C 0.000 10T 6.800 9 0.000 10T 0.000 10 6.800 10
2019-01-18 2019 Bravo Classic The Gymnastics Shop 6A 9 Jr 0.000 14T 0.000 14T 0.000 14T 0.000 14T 0.000 14
2019-01-11 St Jude Benefit Meet The Gymnastics Shop 2C 9 Sr A 6.950 5 6.950 10
2018-04-12 2018 Region 5 Levels 9/10 Championships The Gymnastics Shop 09 9 Jr 8 8.825 18T 6.425 17 8.800 10 8.900 18 32.950 17
2018-03-16 2018 Illinois Level 6, 9, 10 State Championships The Gymnastics Shop 05 9 Jr B 9.025 17 8.000 20 8.475 13 8.600 18 34.100 16
2018-02-23 Kinetic Classic The Gymnastics Shop 3 9 Older 9.125 27T 7.000 40 8.500 32T 8.750 23T 33.375 37
2018-02-08 Nashville Nights 2018 The Gymnastics Shop W06 9 JrC 8.800 5 0.000 7T 0.000 8T 8.525 5 17.325 8
2018-01-19 2018 Bravo Classic The Gymnastics Shop 9A 9 Jr 9.200 1 7.300 5 7.600 6 8.550 5 32.650 3
2018-01-12 St Jude Benefit Meet The Gymnastics Shop 4B 9 Sr 8.775 6 7.500 7 7.750 8 8.625 3T 32.650 5
2017-12-15 2017 Aspire Classic The Gymnastics Shop 5B 9 Middle 8.825 6 7.100 7 5.200 11 8.625 9 29.750 6
2017-12-08 St. Nick Invite The Gymnastics Shop 3 9 All 8.725 4 6.950 4 7.700 4 8.250 3 31.625 4
2017-12-01 Ultimate Wish Classic The Gymnastics Shop 1 9 JR 8.925 3 6.550 9 6.500 8 8.575 6 30.550 7
2017-11-10 Illinois NAWGJ Judges Cup 2017 The Gymnastics Shop G1 9 All Ages 0.000 11 0.000 11 0.000 11 6.350 11 6.350 11
2017-03-16 2017 Illinois Level 8, 9 & 10 State Meet The Gymnastics Shop All 8 Jr E 8.575 19 7.600 20 8.125 20 9.025 19 33.325 21
2017-02-24 Dairy Aire Invitational The Gymnastics Shop All 9 Jr A 8.900 5 6.400 9 7.925 8 7.800 9 31.025 9
2017-02-10 IGI Chicago Style Gymnastics Meet The Gymnastics Shop 422R 8 SrA 8.925 10 8.200 15 8.375 14 8.550 19 34.050 13
2017-01-13 Legacy Elite Winter Classic The Gymnastics Shop A7 8 JrC 9.050 2 8.150 5 8.275 5 9.075 3 34.550 4
2016-12-16 2016 Aspire Classic The Gymnastics Shop 9 8 Middle 8.300 12T 8.250 11 8.600 11 7.850 17 33.000 12
2016-12-02 Ultimate Wish Classic The Gymnastics Shop 3 8 Junior 8.100 16 7.000 19 7.750 16 0.000 19 22.850 19
2016-11-11 2016 Illinois Judges Cup The Gymnastics Shop B4 8 13 Year Ol 8.800 1 6.200 5 8.600 2 7.975 5 31.575 5
2016-02-12 Midwest Twisters Harley Meet The Gymnastics Shop o07 8 13 yrs.un 7.900 11 7.250 9T 7.625 13 8.800 10 31.575 11
2016-02-05 Atlantas Paws For A Cause Invitational The Gymnastics Shop B4 8 Jr B 7.550 13 7.500 12 7.400 14 8.375 12 30.825 12
2015-05-02 2015 Illinois Level 6, 7 State Championships The Gymnastics Shop 7 Youth-D 9.275 19 8.800 14 8.550 22 9.125 19 35.750 21
2015-02-13 IGI Chicago Style Gymnastics Meet The Gymnastics Shop 112 7 11 & young 8.400 24 8.350 22 8.375 22 8.900 20 34.025 25
2015-01-23 King Arthur Invitational The Gymnastics Shop 7 7 Jr 8.250 20 7.900 20 8.000 19 8.900 17 33.050 20
2015-01-09 Legacy Elite Winter Classic 2015 The Gymnastics Shop 2B 7 Jr A 8.250 12 8.350 11 8.700 7 8.600 12 33.900 12
2014-04-04 2014 Illinois Level 5 and XCEL State Championship The Gymnastics Shop 5 Ch.D 9.125 21 8.100 26 8.800 22 9.175 21 35.200 27
2014-02-15 BIG Dream Classic 2014 The Gymnastics Shop 1A 4 Junior A 9.250 3 8.750 11T 8.750 16T 8.825 12 35.575 11
2014-02-07 IGI Chicago Style Gymnastics Meet The Gymnastics Shop 631 4 10 Yr Olds 8.550 4 8.900 3 8.650 6 9.325 4T 35.425 4
2013-12-19 2013 Hawaiian Pineapple Classic The Gymnastics Shop A7 4 10 9.350 2 8.800 6T 8.325 17 9.100 5T 35.575 8
2013-04-04 2013 Illinois Level 3, 4 State Meet The Gymnastics Shop 4 Junior.C 9.175 21 9.275 3 9.050 7 9.200 5 36.700 6
2013-03-01 Flip'r Invite 2013 The Gymnastics Shop 4 4 Youth 9.000 9 9.200 3 8.800 2 9.100 2 36.100 2
2013-02-22 Midwest Open 2013 The Gymnastics Shop 6A 4 9 9.425 11 9.300 6 8.500 15 9.025 8 36.250 10
2013-02-16 2013 The Great Western Invitational The Gymnastics Shop 4 Sr 8.550 31 9.000 11 8.500 24 8.850 16 34.900 21
2013-01-12 Legacy Elite Winter Classic The Gymnastics Shop 2 4 Junior 2 9.125 6T 8.750 5T 8.200 13 8.700 10 34.775 11
2012-12-13 2012 Hawaiin Pineapple Classic The Gymnastics Shop 10 4 age 9 9.100 6T 8.550 10T 8.125 11T 8.375 11 34.150 11
Get your scores on
a t-shirt, pin, or hoodie

www.lazysuits.com